TimeEST,TemperatureF,Dew PointF,Humidity,Sea Level PressureIn,VisibilityMPH,Wind Direction,Wind SpeedMPH,Gust SpeedMPH,PrecipitationIn,Events,Conditions,WindDirDegrees,DateUTC
12:53 AM,26.1,8.1,47,29.61,10.0,WSW,13.8,24.2,N/A,,Overcast,240,2013-02-01 05:53:00
1:53 AM,25.0,12.0,58,29.65,10.0,North,8.1,17.3,N/A,,Overcast,350,2013-02-01 06:53:00
2:53 AM,21.9,16.0,78,29.66,2.5,WNW,15.0,23.0,0.00,Snow,Light Snow,290,2013-02-01 07:53:00
3:06 AM,21.2,15.8,80,29.63,4.0,West,10.4,20.7,0.00,Snow,Light Snow,280,2013-02-01 08:06:00
3:53 AM,21.9,14.0,72,29.67,5.0,WNW,9.2,-,0.00,Snow,Light Snow,290,2013-02-01 08:53:00
4:07 AM,21.2,15.8,80,29.65,2.0,West,6.9,-,0.00,Snow,Light Snow,270,2013-02-01 09:07:00
4:21 AM,21.2,15.8,80,29.65,1.2,WSW,4.6,-,0.00,Snow,Light Snow,250,2013-02-01 09:21:00
4:30 AM,21.2,17.6,86,29.65,3.0,Variable,5.8,-,0.00,Snow,Light Snow,0,2013-02-01 09:30:00
4:48 AM,19.4,17.6,93,29.66,6.0,SW,5.8,-,0.00,Snow,Light Snow,220,2013-02-01 09:48:00
4:53 AM,19.9,16.0,85,29.69,9.0,SW,5.8,-,0.00,,Mostly Cloudy,220,2013-02-01 09:53:00
5:53 AM,19.9,12.9,74,29.71,10.0,SW,5.8,-,N/A,,Scattered Clouds,220,2013-02-01 10:53:00
6:53 AM,17.1,12.9,84,29.75,10.0,Calm,Calm,-,N/A,,Overcast,0,2013-02-01 11:53:00
7:53 AM,17.1,12.9,84,29.79,10.0,Calm,Calm,-,N/A,,Mostly Cloudy,0,2013-02-01 12:53:00
8:53 AM,21.9,10.9,63,29.81,10.0,SW,5.8,-,N/A,,Partly Cloudy,230,2013-02-01 13:53:00
9:53 AM,21.9,5.0,48,29.83,10.0,West,11.5,19.6,N/A,,Mostly Cloudy,260,2013-02-01 14:53:00
10:53 AM,24.1,7.0,48,29.86,10.0,WNW,9.2,17.3,N/A,,Mostly Cloudy,290,2013-02-01 15:53:00
11:53 AM,24.1,7.0,48,29.86,10.0,West,11.5,21.9,N/A,,Mostly Cloudy,280,2013-02-01 16:53:00
12:53 PM,25.0,7.0,46,29.86,10.0,WNW,17.3,-,N/A,,Overcast,300,2013-02-01 17:53:00
1:53 PM,24.8,6.8,46,29.84,10.0,WNW,11.5,18.4,N/A,,Overcast,290,2013-02-01 18:53:00
2:53 PM,24.1,3.0,40,29.90,10.0,WNW,16.1,26.5,N/A,,Mostly Cloudy,300,2013-02-01 19:53:00
3:53 PM,24.1,1.9,38,29.94,10.0,NW,17.3,26.5,N/A,,Overcast,310,2013-02-01 20:53:00
4:53 PM,21.9,3.9,46,29.98,10.0,WNW,10.4,-,N/A,,Mostly Cloudy,290,2013-02-01 21:53:00
5:53 PM,19.9,3.0,48,30.01,10.0,West,8.1,-,N/A,,Clear,270,2013-02-01 22:53:00
6:53 PM,19.9,1.9,46,30.06,10.0,West,15.0,21.9,N/A,,Clear,270,2013-02-01 23:53:00
7:53 PM,19.0,1.9,47,30.08,10.0,West,8.1,-,N/A,,Clear,270,2013-02-02 00:53:00
8:53 PM,18.0,1.9,50,30.09,10.0,West,6.9,17.3,N/A,,Partly Cloudy,270,2013-02-02 01:53:00
9:53 PM,18.0,1.0,48,30.12,10.0,West,6.9,-,N/A,,Overcast,270,2013-02-02 02:53:00
10:53 PM,17.1,1.9,52,30.14,10.0,West,8.1,-,N/A,,Mostly Cloudy,280,2013-02-02 03:53:00
11:53 PM,15.1,1.0,54,30.17,10.0,West,3.5,-,N/A,,Clear,270,2013-02-02 04:53:00